sensor_id;sensor_type;location;lat;lon;timestamp;P1;durP1;ratioP1;P2;durP2;ratioP2
20287;SDS011;10303;51.960;8.372;2023-03-24T00:00:00;3.00;;;0.90;;
20287;SDS011;10303;51.960;8.372;2023-03-24T00:02:31;2.30;;;1.37;;
20287;SDS011;10303;51.960;8.372;2023-03-24T00:05:02;1.23;;;0.90;;
20287;SDS011;10303;51.960;8.372;2023-03-24T00:07:31;1.60;;;1.00;;
20287;SDS011;10303;51.960;8.372;2023-03-24T00:09:58;1.47;;;1.07;;
20287;SDS011;10303;51.960;8.372;2023-03-24T00:12:24;1.87;;;1.30;;
20287;SDS011;10303;51.960;8.372;2023-03-24T00:14:50;2.53;;;1.37;;
20287;SDS011;10303;51.960;8.372;2023-03-24T00:17:18;3.90;;;1.10;;
20287;SDS011;10303;51.960;8.372;2023-03-24T00:19:50;1.87;;;0.90;;
20287;SDS011;10303;51.960;8.372;2023-03-24T00:22:16;2.30;;;0.73;;
20287;SDS011;10303;51.960;8.372;2023-03-24T00:24:45;1.13;;;0.90;;
20287;SDS011;10303;51.960;8.372;2023-03-24T00:27:11;1.70;;;1.03;;
20287;SDS011;10303;51.960;8.372;2023-03-24T00:29:38;1.57;;;1.07;;
20287;SDS011;10303;51.960;8.372;2023-03-24T00:32:05;0.80;;;0.80;;
20287;SDS011;10303;51.960;8.372;2023-03-24T00:34:32;1.43;;;0.97;;
20287;SDS011;10303;51.960;8.372;2023-03-24T00:37:03;0.77;;;0.70;;
20287;SDS011;10303;51.960;8.372;2023-03-24T00:39:30;1.53;;;0.90;;
20287;SDS011;10303;51.960;8.372;2023-03-24T00:41:57;0.80;;;0.80;;
20287;SDS011;10303;51.960;8.372;2023-03-24T00:44:25;0.70;;;0.70;;
20287;SDS011;10303;51.960;8.372;2023-03-24T00:46:51;1.53;;;0.90;;
20287;SDS011;10303;51.960;8.372;2023-03-24T00:49:25;0.80;;;0.70;;
20287;SDS011;10303;51.960;8.372;2023-03-24T00:52:30;0.90;;;0.70;;
20287;SDS011;10303;51.960;8.372;2023-03-24T00:55:01;1.60;;;1.00;;
20287;SDS011;10303;51.960;8.372;2023-03-24T00:57:30;1.17;;;0.90;;
20287;SDS011;10303;51.960;8.372;2023-03-24T01:00:01;0.93;;;0.90;;
20287;SDS011;10303;51.960;8.372;2023-03-24T01:02:37;0.90;;;0.87;;
20287;SDS011;10303;51.960;8.372;2023-03-24T01:05:03;1.37;;;0.70;;
20287;SDS011;10303;51.960;8.372;2023-03-24T01:07:30;1.97;;;0.77;;
20287;SDS011;10303;51.960;8.372;2023-03-24T01:09:57;1.07;;;0.90;;
20287;SDS011;10303;51.960;8.372;2023-03-24T01:12:24;9.67;;;1.63;;
20287;SDS011;10303;51.960;8.372;2023-03-24T01:14:55;0.67;;;0.67;;
20287;SDS011;10303;51.960;8.372;2023-03-24T01:17:24;0.83;;;0.50;;
20287;SDS011;10303;51.960;8.372;2023-03-24T01:19:51;1.47;;;0.80;;
20287;SDS011;10303;51.960;8.372;2023-03-24T01:22:19;0.73;;;0.73;;
20287;SDS011;10303;51.960;8.372;2023-03-24T01:24:45;0.70;;;0.70;;
20287;SDS011;10303;51.960;8.372;2023-03-24T01:27:13;0.97;;;0.60;;
20287;SDS011;10303;51.960;8.372;2023-03-24T01:29:40;2.23;;;0.60;;
20287;SDS011;10303;51.960;8.372;2023-03-24T01:32:07;1.10;;;0.90;;
20287;SDS011;10303;51.960;8.372;2023-03-24T01:34:33;1.00;;;0.60;;
20287;SDS011;10303;51.960;8.372;2023-03-24T01:37:00;3.13;;;1.00;;
20287;SDS011;10303;51.960;8.372;2023-03-24T01:39:26;1.37;;;0.70;;
20287;SDS011;10303;51.960;8.372;2023-03-24T01:41:54;0.63;;;0.63;;
20287;SDS011;10303;51.960;8.372;2023-03-24T01:46:52;1.77;;;0.70;;
20287;SDS011;10303;51.960;8.372;2023-03-24T01:49:20;1.23;;;0.63;;
20287;SDS011;10303;51.960;8.372;2023-03-24T01:51:49;0.87;;;0.80;;
20287;SDS011;10303;51.960;8.372;2023-03-24T01:59:54;1.10;;;0.60;;
20287;SDS011;10303;51.960;8.372;2023-03-24T02:03:05;0.73;;;0.73;;
20287;SDS011;10303;51.960;8.372;2023-03-24T02:05:48;0.80;;;0.80;;
20287;SDS011;10303;51.960;8.372;2023-03-24T02:11:03;1.20;;;0.63;;
20287;SDS011;10303;51.960;8.372;2023-03-24T02:13:39;0.87;;;0.87;;
20287;SDS011;10303;51.960;8.372;2023-03-24T02:22:33;1.90;;;0.87;;
20287;SDS011;10303;51.960;8.372;2023-03-24T02:45:34;1.10;;;1.00;;
20287;SDS011;10303;51.960;8.372;2023-03-24T02:51:10;1.27;;;1.07;;
20287;SDS011;10303;51.960;8.372;2023-03-24T03:00:02;0.90;;;0.90;;
20287;SDS011;10303;51.960;8.372;2023-03-24T03:03:24;0.93;;;0.90;;
20287;SDS011;10303;51.960;8.372;2023-03-24T03:06:05;1.83;;;1.50;;
20287;SDS011;10303;51.960;8.372;2023-03-24T03:08:53;1.10;;;1.00;;
20287;SDS011;10303;51.960;8.372;2023-03-24T03:11:23;0.90;;;0.80;;
20287;SDS011;10303;51.960;8.372;2023-03-24T03:13:51;1.47;;;1.27;;
20287;SDS011;10303;51.960;8.372;2023-03-24T03:16:28;2.93;;;1.20;;
20287;SDS011;10303;51.960;8.372;2023-03-24T03:19:05;1.10;;;1.00;;
20287;SDS011;10303;51.960;8.372;2023-03-24T03:21:44;1.10;;;1.10;;
20287;SDS011;10303;51.960;8.372;2023-03-24T03:24:15;1.20;;;1.10;;
20287;SDS011;10303;51.960;8.372;2023-03-24T03:26:53;0.90;;;0.90;;
20287;SDS011;10303;51.960;8.372;2023-03-24T03:29:27;1.57;;;1.10;;
20287;SDS011;10303;51.960;8.372;2023-03-24T03:32:01;1.23;;;1.13;;
20287;SDS011;10303;51.960;8.372;2023-03-24T03:34:43;1.10;;;1.00;;
20287;SDS011;10303;51.960;8.372;2023-03-24T03:40:16;1.20;;;1.10;;
20287;SDS011;10303;51.960;8.372;2023-03-24T03:42:57;0.93;;;0.93;;
20287;SDS011;10303;51.960;8.372;2023-03-24T03:45:23;1.10;;;1.00;;
20287;SDS011;10303;51.960;8.372;2023-03-24T03:47:49;1.00;;;0.90;;
20287;SDS011;10303;51.960;8.372;2023-03-24T03:50:16;1.00;;;0.90;;
20287;SDS011;10303;51.960;8.372;2023-03-24T03:52:42;0.90;;;0.90;;
20287;SDS011;10303;51.960;8.372;2023-03-24T03:55:09;1.30;;;1.20;;
20287;SDS011;10303;51.960;8.372;2023-03-24T03:57:37;2.40;;;1.27;;
20287;SDS011;10303;51.960;8.372;2023-03-24T04:00:22;1.30;;;1.13;;
20287;SDS011;10303;51.960;8.372;2023-03-24T04:05:58;1.40;;;1.30;;
20287;SDS011;10303;51.960;8.372;2023-03-24T04:08:55;1.00;;;1.00;;
20287;SDS011;10303;51.960;8.372;2023-03-24T04:24:42;1.43;;;1.33;;
20287;SDS011;10303;51.960;8.372;2023-03-24T04:27:26;0.83;;;0.83;;
20287;SDS011;10303;51.960;8.372;2023-03-24T04:30:23;1.23;;;1.20;;
20287;SDS011;10303;51.960;8.372;2023-03-24T04:35:58;1.77;;;1.60;;
20287;SDS011;10303;51.960;8.372;2023-03-24T04:38:51;3.57;;;1.23;;
20287;SDS011;10303;51.960;8.372;2023-03-24T04:41:32;2.77;;;1.80;;
20287;SDS011;10303;51.960;8.372;2023-03-24T04:44:16;1.40;;;1.30;;
20287;SDS011;10303;51.960;8.372;2023-03-24T04:47:06;1.20;;;1.10;;
20287;SDS011;10303;51.960;8.372;2023-03-24T04:49:37;1.63;;;1.50;;
20287;SDS011;10303;51.960;8.372;2023-03-24T04:52:04;1.50;;;1.40;;
20287;SDS011;10303;51.960;8.372;2023-03-24T04:54:33;1.53;;;1.27;;
20287;SDS011;10303;51.960;8.372;2023-03-24T04:57:03;1.63;;;1.53;;
20287;SDS011;10303;51.960;8.372;2023-03-24T04:59:41;1.83;;;1.57;;
20287;SDS011;10303;51.960;8.372;2023-03-24T05:02:08;1.23;;;1.13;;
20287;SDS011;10303;51.960;8.372;2023-03-24T05:04:47;1.70;;;1.60;;
20287;SDS011;10303;51.960;8.372;2023-03-24T05:07:17;1.40;;;1.30;;
20287;SDS011;10303;51.960;8.372;2023-03-24T05:09:46;1.83;;;1.67;;
20287;SDS011;10303;51.960;8.372;2023-03-24T05:12:12;1.00;;;1.00;;
20287;SDS011;10303;51.960;8.372;2023-03-24T05:14:56;1.40;;;1.30;;
20287;SDS011;10303;51.960;8.372;2023-03-24T05:17:22;1.40;;;1.30;;
20287;SDS011;10303;51.960;8.372;2023-03-24T05:19:48;1.20;;;1.10;;
20287;SDS011;10303;51.960;8.372;2023-03-24T05:22:14;1.33;;;1.20;;
20287;SDS011;10303;51.960;8.372;2023-03-24T05:24:40;1.67;;;1.47;;
20287;SDS011;10303;51.960;8.372;2023-03-24T05:27:06;2.23;;;1.70;;
20287;SDS011;10303;51.960;8.372;2023-03-24T05:29:32;1.60;;;1.50;;
20287;SDS011;10303;51.960;8.372;2023-03-24T05:31:58;1.70;;;1.60;;
20287;SDS011;10303;51.960;8.372;2023-03-24T05:34:24;1.40;;;1.30;;
20287;SDS011;10303;51.960;8.372;2023-03-24T05:37:10;1.43;;;1.33;;
20287;SDS011;10303;51.960;8.372;2023-03-24T05:39:38;1.57;;;1.47;;
20287;SDS011;10303;51.960;8.372;2023-03-24T05:42:08;4.13;;;1.60;;
20287;SDS011;10303;51.960;8.372;2023-03-24T05:44:35;2.67;;;1.63;;
20287;SDS011;10303;51.960;8.372;2023-03-24T05:47:14;1.67;;;1.57;;
20287;SDS011;10303;51.960;8.372;2023-03-24T05:49:44;2.53;;;2.00;;
20287;SDS011;10303;51.960;8.372;2023-03-24T05:52:11;2.40;;;2.20;;
20287;SDS011;10303;51.960;8.372;2023-03-24T05:54:43;4.20;;;2.13;;
20287;SDS011;10303;51.960;8.372;2023-03-24T05:57:23;3.10;;;2.77;;
20287;SDS011;10303;51.960;8.372;2023-03-24T06:00:12;3.33;;;2.50;;
20287;SDS011;10303;51.960;8.372;2023-03-24T06:02:58;4.57;;;2.00;;
20287;SDS011;10303;51.960;8.372;2023-03-24T06:05:45;2.67;;;1.67;;
20287;SDS011;10303;51.960;8.372;2023-03-24T06:08:13;2.40;;;2.20;;
20287;SDS011;10303;51.960;8.372;2023-03-24T06:10:38;1.80;;;1.70;;
20287;SDS011;10303;51.960;8.372;2023-03-24T06:13:05;1.80;;;1.70;;
20287;SDS011;10303;51.960;8.372;2023-03-24T06:15:34;2.17;;;2.07;;
20287;SDS011;10303;51.960;8.372;2023-03-24T06:18:15;2.43;;;2.23;;
20287;SDS011;10303;51.960;8.372;2023-03-24T06:20:42;3.20;;;2.80;;
20287;SDS011;10303;51.960;8.372;2023-03-24T06:23:15;3.43;;;2.90;;
20287;SDS011;10303;51.960;8.372;2023-03-24T06:26:11;2.20;;;2.00;;
20287;SDS011;10303;51.960;8.372;2023-03-24T06:28:47;2.40;;;2.00;;
20287;SDS011;10303;51.960;8.372;2023-03-24T06:31:17;2.10;;;1.90;;
20287;SDS011;10303;51.960;8.372;2023-03-24T06:33:47;2.10;;;1.70;;
20287;SDS011;10303;51.960;8.372;2023-03-24T06:36:13;1.40;;;1.30;;
20287;SDS011;10303;51.960;8.372;2023-03-24T06:38:41;2.53;;;1.30;;
20287;SDS011;10303;51.960;8.372;2023-03-24T06:41:13;2.40;;;1.00;;
20287;SDS011;10303;51.960;8.372;2023-03-24T06:43:39;2.67;;;0.93;;
20287;SDS011;10303;51.960;8.372;2023-03-24T06:46:05;1.07;;;0.63;;
20287;SDS011;10303;51.960;8.372;2023-03-24T06:48:32;0.87;;;0.60;;
20287;SDS011;10303;51.960;8.372;2023-03-24T06:51:04;0.90;;;0.80;;
20287;SDS011;10303;51.960;8.372;2023-03-24T06:53:30;0.67;;;0.60;;
20287;SDS011;10303;51.960;8.372;2023-03-24T06:55:56;3.20;;;0.63;;
20287;SDS011;10303;51.960;8.372;2023-03-24T06:58:24;0.60;;;0.60;;
20287;SDS011;10303;51.960;8.372;2023-03-24T07:00:58;1.20;;;0.80;;
20287;SDS011;10303;51.960;8.372;2023-03-24T07:03:34;1.03;;;0.60;;
20287;SDS011;10303;51.960;8.372;2023-03-24T07:06:15;3.53;;;1.23;;
20287;SDS011;10303;51.960;8.372;2023-03-24T07:08:46;1.70;;;0.80;;
20287;SDS011;10303;51.960;8.372;2023-03-24T07:11:12;1.70;;;0.93;;
20287;SDS011;10303;51.960;8.372;2023-03-24T07:13:47;0.90;;;0.87;;
20287;SDS011;10303;51.960;8.372;2023-03-24T07:16:14;2.10;;;1.27;;
20287;SDS011;10303;51.960;8.372;2023-03-24T07:18:41;3.20;;;1.03;;
20287;SDS011;10303;51.960;8.372;2023-03-24T07:21:07;3.37;;;1.10;;
20287;SDS011;10303;51.960;8.372;2023-03-24T07:23:34;6.67;;;1.40;;
20287;SDS011;10303;51.960;8.372;2023-03-24T07:26:09;2.23;;;1.37;;
20287;SDS011;10303;51.960;8.372;2023-03-24T07:28:35;1.40;;;1.10;;
20287;SDS011;10303;51.960;8.372;2023-03-24T07:31:04;3.63;;;1.63;;
20287;SDS011;10303;51.960;8.372;2023-03-24T07:33:35;5.13;;;1.90;;
20287;SDS011;10303;51.960;8.372;2023-03-24T07:36:05;3.17;;;1.50;;
20287;SDS011;10303;51.960;8.372;2023-03-24T07:38:34;2.13;;;1.20;;
20287;SDS011;10303;51.960;8.372;2023-03-24T07:41:04;5.13;;;1.57;;
20287;SDS011;10303;51.960;8.372;2023-03-24T07:43:33;6.47;;;1.40;;
20287;SDS011;10303;51.960;8.372;2023-03-24T07:46:06;5.60;;;2.20;;
20287;SDS011;10303;51.960;8.372;2023-03-24T07:48:32;4.00;;;1.40;;
20287;SDS011;10303;51.960;8.372;2023-03-24T07:50:58;3.03;;;1.83;;
20287;SDS011;10303;51.960;8.372;2023-03-24T07:53:48;2.00;;;1.53;;
20287;SDS011;10303;51.960;8.372;2023-03-24T07:56:23;6.80;;;2.20;;
20287;SDS011;10303;51.960;8.372;2023-03-24T07:58:53;2.50;;;1.83;;
20287;SDS011;10303;51.960;8.372;2023-03-24T08:01:27;3.70;;;1.50;;
20287;SDS011;10303;51.960;8.372;2023-03-24T08:04:00;5.07;;;2.07;;
20287;SDS011;10303;51.960;8.372;2023-03-24T08:06:44;3.43;;;2.17;;
20287;SDS011;10303;51.960;8.372;2023-03-24T08:09:11;5.50;;;1.77;;
20287;SDS011;10303;51.960;8.372;2023-03-24T08:11:38;3.23;;;1.53;;
20287;SDS011;10303;51.960;8.372;2023-03-24T08:14:04;5.77;;;1.83;;
20287;SDS011;10303;51.960;8.372;2023-03-24T08:16:32;7.23;;;2.07;;
20287;SDS011;10303;51.960;8.372;2023-03-24T08:18:58;7.70;;;1.40;;
20287;SDS011;10303;51.960;8.372;2023-03-24T08:21:24;3.90;;;1.67;;
20287;SDS011;10303;51.960;8.372;2023-03-24T08:23:50;6.13;;;2.37;;
20287;SDS011;10303;51.960;8.372;2023-03-24T08:26:16;8.43;;;1.63;;
20287;SDS011;10303;51.960;8.372;2023-03-24T08:28:43;6.43;;;1.70;;
20287;SDS011;10303;51.960;8.372;2023-03-24T08:31:09;1.67;;;1.23;;
20287;SDS011;10303;51.960;8.372;2023-03-24T08:33:36;1.23;;;1.13;;
20287;SDS011;10303;51.960;8.372;2023-03-24T08:36:02;5.73;;;2.50;;
20287;SDS011;10303;51.960;8.372;2023-03-24T08:38:28;4.60;;;2.00;;
20287;SDS011;10303;51.960;8.372;2023-03-24T08:40:58;4.33;;;1.50;;
20287;SDS011;10303;51.960;8.372;2023-03-24T08:43:31;7.77;;;2.07;;
20287;SDS011;10303;51.960;8.372;2023-03-24T08:46:00;6.77;;;2.07;;
20287;SDS011;10303;51.960;8.372;2023-03-24T08:48:27;3.10;;;1.73;;
20287;SDS011;10303;51.960;8.372;2023-03-24T08:50:54;3.50;;;1.50;;
20287;SDS011;10303;51.960;8.372;2023-03-24T08:53:22;4.30;;;1.70;;
20287;SDS011;10303;51.960;8.372;2023-03-24T08:55:48;6.30;;;2.00;;
20287;SDS011;10303;51.960;8.372;2023-03-24T08:58:15;4.13;;;1.70;;
20287;SDS011;10303;51.960;8.372;2023-03-24T09:00:44;4.27;;;2.17;;
20287;SDS011;10303;51.960;8.372;2023-03-24T09:03:13;6.87;;;2.00;;
20287;SDS011;10303;51.960;8.372;2023-03-24T09:05:45;7.93;;;2.27;;
20287;SDS011;10303;51.960;8.372;2023-03-24T09:08:12;5.87;;;2.23;;
20287;SDS011;10303;51.960;8.372;2023-03-24T09:10:41;2.17;;;1.43;;
20287;SDS011;10303;51.960;8.372;2023-03-24T09:13:08;2.03;;;1.27;;
20287;SDS011;10303;51.960;8.372;2023-03-24T09:15:34;4.97;;;1.23;;
20287;SDS011;10303;51.960;8.372;2023-03-24T09:18:00;2.73;;;1.73;;
20287;SDS011;10303;51.960;8.372;2023-03-24T09:20:27;5.47;;;1.70;;
20287;SDS011;10303;51.960;8.372;2023-03-24T09:22:53;2.73;;;1.90;;
20287;SDS011;10303;51.960;8.372;2023-03-24T09:25:20;7.30;;;1.83;;
20287;SDS011;10303;51.960;8.372;2023-03-24T09:27:47;7.23;;;2.00;;
20287;SDS011;10303;51.960;8.372;2023-03-24T09:30:14;4.83;;;1.30;;
20287;SDS011;10303;51.960;8.372;2023-03-24T09:32:45;3.47;;;1.40;;
20287;SDS011;10303;51.960;8.372;2023-03-24T09:35:11;9.70;;;2.50;;
20287;SDS011;10303;51.960;8.372;2023-03-24T09:37:37;4.97;;;1.80;;
20287;SDS011;10303;51.960;8.372;2023-03-24T09:40:07;2.50;;;1.37;;
20287;SDS011;10303;51.960;8.372;2023-03-24T09:42:44;1.83;;;1.43;;
20287;SDS011;10303;51.960;8.372;2023-03-24T09:45:24;4.17;;;1.80;;
20287;SDS011;10303;51.960;8.372;2023-03-24T09:48:14;5.07;;;1.50;;
20287;SDS011;10303;51.960;8.372;2023-03-24T09:50:50;4.97;;;1.67;;
20287;SDS011;10303;51.960;8.372;2023-03-24T09:53:36;2.93;;;1.53;;
20287;SDS011;10303;51.960;8.372;2023-03-24T09:56:17;4.00;;;1.47;;
20287;SDS011;10303;51.960;8.372;2023-03-24T09:58:54;3.63;;;1.67;;
20287;SDS011;10303;51.960;8.372;2023-03-24T10:01:30;2.40;;;2.00;;
20287;SDS011;10303;51.960;8.372;2023-03-24T10:03:58;5.60;;;2.00;;
20287;SDS011;10303;51.960;8.372;2023-03-24T10:06:27;4.30;;;1.30;;
20287;SDS011;10303;51.960;8.372;2023-03-24T10:09:06;6.57;;;2.23;;
20287;SDS011;10303;51.960;8.372;2023-03-24T10:21:01;4.63;;;1.50;;
20287;SDS011;10303;51.960;8.372;2023-03-24T10:26:57;2.10;;;1.10;;
20287;SDS011;10303;51.960;8.372;2023-03-24T10:29:34;4.50;;;1.63;;
20287;SDS011;10303;51.960;8.372;2023-03-24T10:34:47;3.67;;;1.17;;
20287;SDS011;10303;51.960;8.372;2023-03-24T10:37:22;2.47;;;0.80;;
20287;SDS011;10303;51.960;8.372;2023-03-24T10:39:48;6.03;;;1.80;;
20287;SDS011;10303;51.960;8.372;2023-03-24T10:42:22;3.23;;;1.47;;
20287;SDS011;10303;51.960;8.372;2023-03-24T10:44:52;4.43;;;1.47;;
20287;SDS011;10303;51.960;8.372;2023-03-24T10:47:21;3.00;;;1.10;;
20287;SDS011;10303;51.960;8.372;2023-03-24T10:49:53;5.60;;;2.20;;
20287;SDS011;10303;51.960;8.372;2023-03-24T10:52:24;3.13;;;1.20;;
20287;SDS011;10303;51.960;8.372;2023-03-24T10:54:56;1.40;;;1.10;;
20287;SDS011;10303;51.960;8.372;2023-03-24T10:57:28;2.53;;;1.00;;
20287;SDS011;10303;51.960;8.372;2023-03-24T10:59:59;7.23;;;1.13;;
20287;SDS011;10303;51.960;8.372;2023-03-24T11:02:34;7.43;;;1.33;;
20287;SDS011;10303;51.960;8.372;2023-03-24T11:05:12;4.70;;;1.20;;
20287;SDS011;10303;51.960;8.372;2023-03-24T11:07:48;1.33;;;0.90;;
20287;SDS011;10303;51.960;8.372;2023-03-24T11:10:25;5.23;;;1.43;;
20287;SDS011;10303;51.960;8.372;2023-03-24T11:15:24;4.67;;;1.80;;
20287;SDS011;10303;51.960;8.372;2023-03-24T11:17:56;5.20;;;1.27;;
20287;SDS011;10303;51.960;8.372;2023-03-24T11:20:32;3.53;;;0.90;;
20287;SDS011;10303;51.960;8.372;2023-03-24T11:23:07;3.27;;;1.03;;
20287;SDS011;10303;51.960;8.372;2023-03-24T11:28:54;8.87;;;1.43;;
20287;SDS011;10303;51.960;8.372;2023-03-24T11:31:32;3.90;;;1.47;;
20287;SDS011;10303;51.960;8.372;2023-03-24T11:34:24;3.27;;;0.97;;
20287;SDS011;10303;51.960;8.372;2023-03-24T11:36:55;7.17;;;1.60;;
20287;SDS011;10303;51.960;8.372;2023-03-24T11:39:26;9.37;;;1.27;;
20287;SDS011;10303;51.960;8.372;2023-03-24T11:47:05;4.83;;;2.10;;
20287;SDS011;10303;51.960;8.372;2023-03-24T11:52:38;4.37;;;1.60;;
20287;SDS011;10303;51.960;8.372;2023-03-24T11:55:13;3.87;;;1.80;;
20287;SDS011;10303;51.960;8.372;2023-03-24T11:57:55;9.13;;;1.67;;
20287;SDS011;10303;51.960;8.372;2023-03-24T12:00:53;3.70;;;0.87;;
20287;SDS011;10303;51.960;8.372;2023-03-24T12:03:42;9.30;;;1.70;;
20287;SDS011;10303;51.960;8.372;2023-03-24T12:06:54;1.53;;;1.20;;
20287;SDS011;10303;51.960;8.372;2023-03-24T12:27:38;1.67;;;0.70;;
20287;SDS011;10303;51.960;8.372;2023-03-24T12:33:50;2.23;;;1.47;;
20287;SDS011;10303;51.960;8.372;2023-03-24T12:39:34;1.33;;;0.80;;
20287;SDS011;10303;51.960;8.372;2023-03-24T12:42:18;2.30;;;0.70;;
20287;SDS011;10303;51.960;8.372;2023-03-24T12:44:54;3.70;;;1.00;;
20287;SDS011;10303;51.960;8.372;2023-03-24T12:47:56;2.67;;;1.33;;
20287;SDS011;10303;51.960;8.372;2023-03-24T12:57:03;3.73;;;1.70;;
20287;SDS011;10303;51.960;8.372;2023-03-24T12:59:40;6.77;;;1.50;;
20287;SDS011;10303;51.960;8.372;2023-03-24T13:05:03;3.53;;;1.30;;
20287;SDS011;10303;51.960;8.372;2023-03-24T13:07:41;6.40;;;2.10;;
20287;SDS011;10303;51.960;8.372;2023-03-24T13:15:42;3.13;;;1.30;;
20287;SDS011;10303;51.960;8.372;2023-03-24T13:20:59;2.03;;;1.33;;
20287;SDS011;10303;51.960;8.372;2023-03-24T13:23:37;1.27;;;0.93;;
20287;SDS011;10303;51.960;8.372;2023-03-24T13:37:35;5.13;;;1.10;;
20287;SDS011;10303;51.960;8.372;2023-03-24T13:40:28;1.33;;;1.00;;
20287;SDS011;10303;51.960;8.372;2023-03-24T13:43:30;5.87;;;1.33;;
20287;SDS011;10303;51.960;8.372;2023-03-24T13:46:00;2.37;;;1.30;;
20287;SDS011;10303;51.960;8.372;2023-03-24T13:48:33;3.57;;;1.10;;
20287;SDS011;10303;51.960;8.372;2023-03-24T13:51:16;3.47;;;1.00;;
20287;SDS011;10303;51.960;8.372;2023-03-24T13:57:05;2.87;;;1.60;;
20287;SDS011;10303;51.960;8.372;2023-03-24T13:59:40;3.43;;;1.30;;
20287;SDS011;10303;51.960;8.372;2023-03-24T14:07:50;2.73;;;1.10;;
20287;SDS011;10303;51.960;8.372;2023-03-24T14:10:37;1.37;;;1.00;;
20287;SDS011;10303;51.960;8.372;2023-03-24T14:25:56;2.73;;;1.10;;
20287;SDS011;10303;51.960;8.372;2023-03-24T14:28:24;1.77;;;1.10;;
20287;SDS011;10303;51.960;8.372;2023-03-24T14:31:23;2.93;;;1.00;;
20287;SDS011;10303;51.960;8.372;2023-03-24T14:34:14;3.63;;;1.30;;
20287;SDS011;10303;51.960;8.372;2023-03-24T14:36:45;2.70;;;1.10;;
20287;SDS011;10303;51.960;8.372;2023-03-24T14:42:25;3.97;;;1.40;;
20287;SDS011;10303;51.960;8.372;2023-03-24T14:44:59;4.20;;;1.00;;
20287;SDS011;10303;51.960;8.372;2023-03-24T14:47:30;3.10;;;1.03;;
20287;SDS011;10303;51.960;8.372;2023-03-24T14:50:09;3.23;;;1.10;;
20287;SDS011;10303;51.960;8.372;2023-03-24T14:52:50;2.50;;;1.30;;
20287;SDS011;10303;51.960;8.372;2023-03-24T14:55:27;3.13;;;1.07;;
20287;SDS011;10303;51.960;8.372;2023-03-24T14:58:09;3.70;;;1.30;;
20287;SDS011;10303;51.960;8.372;2023-03-24T15:01:06;3.10;;;1.30;;
20287;SDS011;10303;51.960;8.372;2023-03-24T15:06:18;1.17;;;0.70;;
20287;SDS011;10303;51.960;8.372;2023-03-24T15:08:48;2.47;;;0.90;;
20287;SDS011;10303;51.960;8.372;2023-03-24T15:11:38;3.60;;;0.93;;
20287;SDS011;10303;51.960;8.372;2023-03-24T15:14:06;0.37;;;0.37;;
20287;SDS011;10303;51.960;8.372;2023-03-24T15:16:53;1.40;;;0.50;;
20287;SDS011;10303;51.960;8.372;2023-03-24T15:19:39;0.60;;;0.60;;
20287;SDS011;10303;51.960;8.372;2023-03-24T15:22:09;1.17;;;0.43;;
20287;SDS011;10303;51.960;8.372;2023-03-24T15:24:40;0.87;;;0.20;;
20287;SDS011;10303;51.960;8.372;2023-03-24T15:29:33;0.53;;;0.23;;
20287;SDS011;10303;51.960;8.372;2023-03-24T15:32:02;0.40;;;0.20;;
20287;SDS011;10303;51.960;8.372;2023-03-24T15:34:33;0.43;;;0.43;;
20287;SDS011;10303;51.960;8.372;2023-03-24T15:37:04;0.30;;;0.30;;
20287;SDS011;10303;51.960;8.372;2023-03-24T15:39:47;0.67;;;0.30;;
20287;SDS011;10303;51.960;8.372;2023-03-24T15:42:17;0.87;;;0.40;;
20287;SDS011;10303;51.960;8.372;2023-03-24T15:44:48;2.07;;;0.40;;
20287;SDS011;10303;51.960;8.372;2023-03-24T15:47:28;2.13;;;0.80;;
20287;SDS011;10303;51.960;8.372;2023-03-24T15:50:01;1.17;;;0.30;;
20287;SDS011;10303;51.960;8.372;2023-03-24T15:52:32;0.30;;;0.30;;
20287;SDS011;10303;51.960;8.372;2023-03-24T15:55:18;0.33;;;0.33;;
20287;SDS011;10303;51.960;8.372;2023-03-24T15:58:22;0.93;;;0.30;;
20287;SDS011;10303;51.960;8.372;2023-03-24T16:00:48;0.30;;;0.30;;
20287;SDS011;10303;51.960;8.372;2023-03-24T16:03:20;0.70;;;0.30;;
20287;SDS011;10303;51.960;8.372;2023-03-24T16:05:50;1.10;;;0.60;;
20287;SDS011;10303;51.960;8.372;2023-03-24T16:08:23;0.97;;;0.20;;
20287;SDS011;10303;51.960;8.372;2023-03-24T16:11:10;0.77;;;0.20;;
20287;SDS011;10303;51.960;8.372;2023-03-24T16:13:39;0.30;;;0.30;;
20287;SDS011;10303;51.960;8.372;2023-03-24T16:18:43;0.40;;;0.30;;
20287;SDS011;10303;51.960;8.372;2023-03-24T16:21:15;1.33;;;0.40;;
20287;SDS011;10303;51.960;8.372;2023-03-24T16:23:48;0.40;;;0.40;;
20287;SDS011;10303;51.960;8.372;2023-03-24T16:26:37;0.43;;;0.37;;
20287;SDS011;10303;51.960;8.372;2023-03-24T16:31:38;0.37;;;0.30;;
20287;SDS011;10303;51.960;8.372;2023-03-24T16:34:04;0.70;;;0.20;;
20287;SDS011;10303;51.960;8.372;2023-03-24T16:36:30;0.27;;;0.27;;
20287;SDS011;10303;51.960;8.372;2023-03-24T16:38:57;0.30;;;0.30;;
20287;SDS011;10303;51.960;8.372;2023-03-24T16:41:25;0.93;;;0.50;;
20287;SDS011;10303;51.960;8.372;2023-03-24T16:43:51;1.60;;;0.60;;
20287;SDS011;10303;51.960;8.372;2023-03-24T16:46:28;0.50;;;0.40;;
20287;SDS011;10303;51.960;8.372;2023-03-24T16:48:57;0.30;;;0.30;;
20287;SDS011;10303;51.960;8.372;2023-03-24T16:51:25;0.47;;;0.43;;
20287;SDS011;10303;51.960;8.372;2023-03-24T16:53:51;0.50;;;0.33;;
20287;SDS011;10303;51.960;8.372;2023-03-24T16:56:18;0.50;;;0.50;;
20287;SDS011;10303;51.960;8.372;2023-03-24T16:58:46;1.90;;;0.70;;
20287;SDS011;10303;51.960;8.372;2023-03-24T17:01:14;0.60;;;0.50;;
20287;SDS011;10303;51.960;8.372;2023-03-24T17:04:05;0.80;;;0.40;;
20287;SDS011;10303;51.960;8.372;2023-03-24T17:06:37;1.00;;;0.60;;
20287;SDS011;10303;51.960;8.372;2023-03-24T17:09:06;1.53;;;0.53;;
20287;SDS011;10303;51.960;8.372;2023-03-24T17:11:42;2.93;;;0.50;;
20287;SDS011;10303;51.960;8.372;2023-03-24T17:14:16;3.23;;;0.73;;
20287;SDS011;10303;51.960;8.372;2023-03-24T17:16:43;3.00;;;0.70;;
20287;SDS011;10303;51.960;8.372;2023-03-24T17:19:13;3.33;;;0.70;;
20287;SDS011;10303;51.960;8.372;2023-03-24T17:24:27;2.13;;;0.60;;
20287;SDS011;10303;51.960;8.372;2023-03-24T17:27:00;0.40;;;0.40;;
20287;SDS011;10303;51.960;8.372;2023-03-24T17:29:27;0.40;;;0.30;;
20287;SDS011;10303;51.960;8.372;2023-03-24T17:31:53;3.23;;;0.50;;
20287;SDS011;10303;51.960;8.372;2023-03-24T17:34:20;0.50;;;0.43;;
20287;SDS011;10303;51.960;8.372;2023-03-24T17:36:47;1.13;;;0.30;;
20287;SDS011;10303;51.960;8.372;2023-03-24T17:39:14;0.33;;;0.33;;
20287;SDS011;10303;51.960;8.372;2023-03-24T17:41:42;1.80;;;0.40;;
20287;SDS011;10303;51.960;8.372;2023-03-24T17:44:08;0.40;;;0.40;;
20287;SDS011;10303;51.960;8.372;2023-03-24T17:46:34;0.43;;;0.30;;
20287;SDS011;10303;51.960;8.372;2023-03-24T17:49:00;0.60;;;0.40;;
20287;SDS011;10303;51.960;8.372;2023-03-24T17:51:26;1.33;;;0.50;;
20287;SDS011;10303;51.960;8.372;2023-03-24T17:53:52;1.37;;;0.60;;
20287;SDS011;10303;51.960;8.372;2023-03-24T17:56:18;0.50;;;0.50;;
20287;SDS011;10303;51.960;8.372;2023-03-24T17:58:45;1.23;;;0.63;;
20287;SDS011;10303;51.960;8.372;2023-03-24T18:01:13;0.80;;;0.77;;
20287;SDS011;10303;51.960;8.372;2023-03-24T18:03:42;0.57;;;0.50;;
20287;SDS011;10303;51.960;8.372;2023-03-24T18:06:09;0.63;;;0.60;;
20287;SDS011;10303;51.960;8.372;2023-03-24T18:08:37;0.93;;;0.60;;
20287;SDS011;10303;51.960;8.372;2023-03-24T18:11:07;1.03;;;0.70;;
20287;SDS011;10303;51.960;8.372;2023-03-24T18:13:37;1.73;;;0.50;;
20287;SDS011;10303;51.960;8.372;2023-03-24T18:16:03;1.93;;;0.97;;
20287;SDS011;10303;51.960;8.372;2023-03-24T18:18:35;0.67;;;0.63;;
20287;SDS011;10303;51.960;8.372;2023-03-24T18:21:05;0.70;;;0.70;;
20287;SDS011;10303;51.960;8.372;2023-03-24T18:23:32;2.03;;;1.10;;
20287;SDS011;10303;51.960;8.372;2023-03-24T18:26:00;0.83;;;0.80;;
20287;SDS011;10303;51.960;8.372;2023-03-24T18:28:34;1.60;;;1.50;;
20287;SDS011;10303;51.960;8.372;2023-03-24T18:31:09;1.07;;;0.97;;